sensor_id;sensor_type;location;lat;lon;timestamp;P1;durP1;ratioP1;P2;durP2;ratioP2
60979;SDS011;46851;49.160;8.980;2023-10-09T00:00:23;13.88;;;4.35;;
60979;SDS011;46851;49.160;8.980;2023-10-09T00:02:56;12.52;;;4.55;;
60979;SDS011;46851;49.160;8.980;2023-10-09T00:05:26;11.55;;;4.47;;
60979;SDS011;46851;49.160;8.980;2023-10-09T00:08:04;12.80;;;3.97;;
60979;SDS011;46851;49.160;8.980;2023-10-09T00:10:30;11.60;;;4.07;;
60979;SDS011;46851;49.160;8.980;2023-10-09T00:13:15;10.52;;;4.45;;
60979;SDS011;46851;49.160;8.980;2023-10-09T00:15:41;9.95;;;4.22;;
60979;SDS011;46851;49.160;8.980;2023-10-09T00:18:08;8.13;;;4.03;;
60979;SDS011;46851;49.160;8.980;2023-10-09T00:20:37;10.95;;;4.60;;
60979;SDS011;46851;49.160;8.980;2023-10-09T00:23:07;7.90;;;3.75;;
60979;SDS011;46851;49.160;8.980;2023-10-09T00:25:39;10.93;;;3.97;;
60979;SDS011;46851;49.160;8.980;2023-10-09T00:28:12;12.80;;;4.30;;
60979;SDS011;46851;49.160;8.980;2023-10-09T00:30:42;18.20;;;5.53;;
60979;SDS011;46851;49.160;8.980;2023-10-09T00:33:08;8.70;;;4.10;;
60979;SDS011;46851;49.160;8.980;2023-10-09T00:35:38;10.88;;;4.15;;
60979;SDS011;46851;49.160;8.980;2023-10-09T00:38:10;11.02;;;4.22;;
60979;SDS011;46851;49.160;8.980;2023-10-09T00:40:39;12.60;;;5.03;;
60979;SDS011;46851;49.160;8.980;2023-10-09T00:43:11;11.38;;;4.75;;
60979;SDS011;46851;49.160;8.980;2023-10-09T00:45:38;13.88;;;4.80;;
60979;SDS011;46851;49.160;8.980;2023-10-09T00:48:06;9.20;;;3.53;;
60979;SDS011;46851;49.160;8.980;2023-10-09T00:50:33;14.57;;;4.15;;
60979;SDS011;46851;49.160;8.980;2023-10-09T00:53:04;9.10;;;4.50;;
60979;SDS011;46851;49.160;8.980;2023-10-09T00:55:37;9.55;;;4.32;;
60979;SDS011;46851;49.160;8.980;2023-10-09T00:58:14;9.27;;;4.22;;
60979;SDS011;46851;49.160;8.980;2023-10-09T01:00:41;10.13;;;4.03;;
60979;SDS011;46851;49.160;8.980;2023-10-09T01:03:12;17.33;;;4.50;;
60979;SDS011;46851;49.160;8.980;2023-10-09T01:05:41;17.73;;;4.70;;
60979;SDS011;46851;49.160;8.980;2023-10-09T01:10:56;13.43;;;5.88;;
60979;SDS011;46851;49.160;8.980;2023-10-09T01:13:23;16.00;;;4.82;;
60979;SDS011;46851;49.160;8.980;2023-10-09T01:16:05;13.13;;;5.00;;
60979;SDS011;46851;49.160;8.980;2023-10-09T01:18:31;14.20;;;4.30;;
60979;SDS011;46851;49.160;8.980;2023-10-09T01:21:01;12.45;;;4.22;;
60979;SDS011;46851;49.160;8.980;2023-10-09T01:23:28;13.73;;;3.83;;
60979;SDS011;46851;49.160;8.980;2023-10-09T01:25:57;12.25;;;4.53;;
60979;SDS011;46851;49.160;8.980;2023-10-09T01:28:23;10.00;;;3.75;;
60979;SDS011;46851;49.160;8.980;2023-10-09T01:30:51;9.43;;;3.58;;
60979;SDS011;46851;49.160;8.980;2023-10-09T01:33:17;18.38;;;4.43;;
60979;SDS011;46851;49.160;8.980;2023-10-09T01:35:47;19.95;;;4.13;;
60979;SDS011;46851;49.160;8.980;2023-10-09T01:38:15;25.23;;;5.43;;
60979;SDS011;46851;49.160;8.980;2023-10-09T01:40:41;16.02;;;4.00;;
60979;SDS011;46851;49.160;8.980;2023-10-09T01:43:09;12.82;;;4.35;;
60979;SDS011;46851;49.160;8.980;2023-10-09T01:45:35;16.58;;;3.47;;
60979;SDS011;46851;49.160;8.980;2023-10-09T01:48:11;17.15;;;4.70;;
60979;SDS011;46851;49.160;8.980;2023-10-09T01:50:39;14.52;;;4.10;;
60979;SDS011;46851;49.160;8.980;2023-10-09T01:53:07;16.98;;;3.97;;
60979;SDS011;46851;49.160;8.980;2023-10-09T01:55:33;17.15;;;4.40;;
60979;SDS011;46851;49.160;8.980;2023-10-09T01:57:59;12.60;;;3.53;;
60979;SDS011;46851;49.160;8.980;2023-10-09T02:00:30;19.20;;;4.30;;
60979;SDS011;46851;49.160;8.980;2023-10-09T02:03:00;16.83;;;3.78;;
60979;SDS011;46851;49.160;8.980;2023-10-09T02:08:01;17.38;;;5.28;;
60979;SDS011;46851;49.160;8.980;2023-10-09T02:10:29;14.82;;;3.75;;
60979;SDS011;46851;49.160;8.980;2023-10-09T02:15:42;17.02;;;4.30;;
60979;SDS011;46851;49.160;8.980;2023-10-09T02:18:12;13.25;;;3.47;;
60979;SDS011;46851;49.160;8.980;2023-10-09T02:23:30;26.30;;;6.75;;
60979;SDS011;46851;49.160;8.980;2023-10-09T02:26:14;14.02;;;4.30;;
60979;SDS011;46851;49.160;8.980;2023-10-09T02:28:50;19.70;;;4.38;;
60979;SDS011;46851;49.160;8.980;2023-10-09T02:31:39;18.42;;;5.10;;
60979;SDS011;46851;49.160;8.980;2023-10-09T02:34:05;19.05;;;3.95;;
60979;SDS011;46851;49.160;8.980;2023-10-09T02:36:33;21.25;;;4.75;;
60979;SDS011;46851;49.160;8.980;2023-10-09T02:39:13;22.38;;;3.78;;
60979;SDS011;46851;49.160;8.980;2023-10-09T02:41:52;20.02;;;3.60;;
60979;SDS011;46851;49.160;8.980;2023-10-09T02:44:23;17.20;;;4.18;;
60979;SDS011;46851;49.160;8.980;2023-10-09T02:46:55;14.10;;;3.60;;
60979;SDS011;46851;49.160;8.980;2023-10-09T02:49:23;17.55;;;4.53;;
60979;SDS011;46851;49.160;8.980;2023-10-09T02:51:49;22.90;;;4.10;;
60979;SDS011;46851;49.160;8.980;2023-10-09T02:54:18;18.10;;;4.57;;
60979;SDS011;46851;49.160;8.980;2023-10-09T02:56:52;16.73;;;4.25;;
60979;SDS011;46851;49.160;8.980;2023-10-09T02:59:31;17.05;;;4.20;;
60979;SDS011;46851;49.160;8.980;2023-10-09T03:01:57;19.08;;;4.20;;
60979;SDS011;46851;49.160;8.980;2023-10-09T03:04:25;21.15;;;4.00;;
60979;SDS011;46851;49.160;8.980;2023-10-09T03:06:54;22.50;;;4.22;;
60979;SDS011;46851;49.160;8.980;2023-10-09T03:09:22;17.02;;;3.67;;
60979;SDS011;46851;49.160;8.980;2023-10-09T03:14:27;18.70;;;4.35;;
60979;SDS011;46851;49.160;8.980;2023-10-09T03:16:54;15.48;;;3.67;;
60979;SDS011;46851;49.160;8.980;2023-10-09T03:19:21;17.23;;;4.88;;
60979;SDS011;46851;49.160;8.980;2023-10-09T03:21:47;13.25;;;4.15;;
60979;SDS011;46851;49.160;8.980;2023-10-09T03:24:13;20.40;;;4.20;;
60979;SDS011;46851;49.160;8.980;2023-10-09T03:26:41;15.27;;;4.53;;
60979;SDS011;46851;49.160;8.980;2023-10-09T03:29:10;13.95;;;3.35;;
60979;SDS011;46851;49.160;8.980;2023-10-09T03:31:37;19.05;;;3.75;;
60979;SDS011;46851;49.160;8.980;2023-10-09T03:34:03;19.35;;;4.00;;
60979;SDS011;46851;49.160;8.980;2023-10-09T03:36:29;19.80;;;4.45;;
60979;SDS011;46851;49.160;8.980;2023-10-09T03:39:03;18.45;;;3.85;;
60979;SDS011;46851;49.160;8.980;2023-10-09T03:41:43;19.17;;;4.82;;
60979;SDS011;46851;49.160;8.980;2023-10-09T03:44:11;15.68;;;3.42;;
60979;SDS011;46851;49.160;8.980;2023-10-09T03:46:38;25.60;;;4.47;;
60979;SDS011;46851;49.160;8.980;2023-10-09T03:49:09;22.10;;;4.25;;
60979;SDS011;46851;49.160;8.980;2023-10-09T03:51:36;16.45;;;3.40;;
60979;SDS011;46851;49.160;8.980;2023-10-09T03:54:02;15.45;;;3.60;;
60979;SDS011;46851;49.160;8.980;2023-10-09T03:56:33;14.82;;;4.18;;
60979;SDS011;46851;49.160;8.980;2023-10-09T03:59:00;18.42;;;3.67;;
60979;SDS011;46851;49.160;8.980;2023-10-09T04:04:02;16.88;;;4.32;;
60979;SDS011;46851;49.160;8.980;2023-10-09T04:06:30;26.23;;;4.30;;
60979;SDS011;46851;49.160;8.980;2023-10-09T04:09:00;22.52;;;4.35;;
60979;SDS011;46851;49.160;8.980;2023-10-09T04:11:39;15.77;;;3.75;;
60979;SDS011;46851;49.160;8.980;2023-10-09T04:14:11;20.48;;;4.70;;
60979;SDS011;46851;49.160;8.980;2023-10-09T04:16:48;19.67;;;4.22;;
60979;SDS011;46851;49.160;8.980;2023-10-09T04:19:17;16.48;;;3.83;;
60979;SDS011;46851;49.160;8.980;2023-10-09T04:21:49;18.67;;;4.55;;
60979;SDS011;46851;49.160;8.980;2023-10-09T04:24:20;17.23;;;3.75;;
60979;SDS011;46851;49.160;8.980;2023-10-09T04:26:46;20.67;;;4.22;;
60979;SDS011;46851;49.160;8.980;2023-10-09T04:29:16;26.98;;;4.50;;
60979;SDS011;46851;49.160;8.980;2023-10-09T04:31:52;16.95;;;4.63;;
60979;SDS011;46851;49.160;8.980;2023-10-09T04:34:20;15.18;;;3.65;;
60979;SDS011;46851;49.160;8.980;2023-10-09T04:36:49;18.98;;;4.40;;
60979;SDS011;46851;49.160;8.980;2023-10-09T04:39:19;27.60;;;3.90;;
60979;SDS011;46851;49.160;8.980;2023-10-09T04:41:54;20.52;;;4.07;;
60979;SDS011;46851;49.160;8.980;2023-10-09T04:44:56;17.13;;;3.88;;
60979;SDS011;46851;49.160;8.980;2023-10-09T04:47:44;19.55;;;3.58;;
60979;SDS011;46851;49.160;8.980;2023-10-09T04:50:23;20.25;;;4.32;;
60979;SDS011;46851;49.160;8.980;2023-10-09T04:52:55;30.08;;;4.30;;
60979;SDS011;46851;49.160;8.980;2023-10-09T04:55:21;20.00;;;3.95;;
60979;SDS011;46851;49.160;8.980;2023-10-09T04:57:50;29.73;;;5.03;;
60979;SDS011;46851;49.160;8.980;2023-10-09T05:00:26;15.63;;;4.22;;
60979;SDS011;46851;49.160;8.980;2023-10-09T05:05:21;27.98;;;5.15;;
60979;SDS011;46851;49.160;8.980;2023-10-09T05:08:06;23.45;;;4.68;;
60979;SDS011;46851;49.160;8.980;2023-10-09T05:10:45;38.53;;;5.28;;
60979;SDS011;46851;49.160;8.980;2023-10-09T05:13:24;28.25;;;5.65;;
60979;SDS011;46851;49.160;8.980;2023-10-09T05:16:08;34.33;;;6.82;;
60979;SDS011;46851;49.160;8.980;2023-10-09T05:18:47;41.33;;;6.20;;
60979;SDS011;46851;49.160;8.980;2023-10-09T05:21:37;33.80;;;5.55;;
60979;SDS011;46851;49.160;8.980;2023-10-09T05:24:04;34.63;;;5.47;;
60979;SDS011;46851;49.160;8.980;2023-10-09T05:26:40;27.70;;;5.32;;
60979;SDS011;46851;49.160;8.980;2023-10-09T05:29:26;24.83;;;4.75;;
60979;SDS011;46851;49.160;8.980;2023-10-09T05:31:59;29.85;;;6.13;;
60979;SDS011;46851;49.160;8.980;2023-10-09T05:34:25;28.52;;;5.43;;
60979;SDS011;46851;49.160;8.980;2023-10-09T05:37:21;33.85;;;4.95;;
60979;SDS011;46851;49.160;8.980;2023-10-09T05:39:53;30.53;;;6.47;;
60979;SDS011;46851;49.160;8.980;2023-10-09T05:42:29;48.95;;;5.30;;
60979;SDS011;46851;49.160;8.980;2023-10-09T05:47:43;22.55;;;4.70;;
60979;SDS011;46851;49.160;8.980;2023-10-09T05:50:18;39.53;;;5.63;;
60979;SDS011;46851;49.160;8.980;2023-10-09T05:52:44;32.47;;;5.57;;
60979;SDS011;46851;49.160;8.980;2023-10-09T05:55:31;30.98;;;5.95;;
60979;SDS011;46851;49.160;8.980;2023-10-09T05:58:15;30.70;;;5.13;;
60979;SDS011;46851;49.160;8.980;2023-10-09T06:01:04;29.20;;;4.93;;
60979;SDS011;46851;49.160;8.980;2023-10-09T06:03:49;36.83;;;6.03;;
60979;SDS011;46851;49.160;8.980;2023-10-09T06:06:35;37.08;;;6.10;;
60979;SDS011;46851;49.160;8.980;2023-10-09T06:09:11;48.00;;;6.38;;
60979;SDS011;46851;49.160;8.980;2023-10-09T06:11:41;60.63;;;6.22;;
60979;SDS011;46851;49.160;8.980;2023-10-09T06:14:15;68.85;;;9.63;;
60979;SDS011;46851;49.160;8.980;2023-10-09T06:16:50;65.93;;;8.52;;
60979;SDS011;46851;49.160;8.980;2023-10-09T06:19:22;73.97;;;9.40;;
60979;SDS011;46851;49.160;8.980;2023-10-09T06:21:52;69.53;;;9.13;;
60979;SDS011;46851;49.160;8.980;2023-10-09T06:24:37;61.72;;;6.60;;
60979;SDS011;46851;49.160;8.980;2023-10-09T06:27:07;41.15;;;5.68;;
60979;SDS011;46851;49.160;8.980;2023-10-09T06:29:37;52.35;;;5.97;;
60979;SDS011;46851;49.160;8.980;2023-10-09T06:32:07;45.70;;;5.93;;
60979;SDS011;46851;49.160;8.980;2023-10-09T06:34:59;57.58;;;6.47;;
60979;SDS011;46851;49.160;8.980;2023-10-09T06:37:42;68.78;;;8.32;;
60979;SDS011;46851;49.160;8.980;2023-10-09T06:40:29;83.45;;;7.75;;
60979;SDS011;46851;49.160;8.980;2023-10-09T06:43:14;64.57;;;7.03;;
60979;SDS011;46851;49.160;8.980;2023-10-09T06:45:42;78.43;;;7.40;;
60979;SDS011;46851;49.160;8.980;2023-10-09T06:48:11;60.17;;;7.70;;
60979;SDS011;46851;49.160;8.980;2023-10-09T06:50:56;83.70;;;11.27;;
60979;SDS011;46851;49.160;8.980;2023-10-09T06:53:22;106.50;;;9.82;;
60979;SDS011;46851;49.160;8.980;2023-10-09T06:56:08;96.65;;;9.32;;
60979;SDS011;46851;49.160;8.980;2023-10-09T06:58:48;61.22;;;8.45;;
60979;SDS011;46851;49.160;8.980;2023-10-09T07:01:14;52.78;;;7.80;;
60979;SDS011;46851;49.160;8.980;2023-10-09T07:03:53;45.65;;;6.20;;
60979;SDS011;46851;49.160;8.980;2023-10-09T07:06:19;47.63;;;6.88;;
60979;SDS011;46851;49.160;8.980;2023-10-09T07:08:51;39.85;;;5.72;;
60979;SDS011;46851;49.160;8.980;2023-10-09T07:11:42;31.83;;;5.95;;
60979;SDS011;46851;49.160;8.980;2023-10-09T07:14:09;38.00;;;5.88;;
60979;SDS011;46851;49.160;8.980;2023-10-09T07:16:55;71.40;;;7.25;;
60979;SDS011;46851;49.160;8.980;2023-10-09T07:19:48;86.07;;;9.48;;
60979;SDS011;46851;49.160;8.980;2023-10-09T07:22:14;92.32;;;9.40;;
60979;SDS011;46851;49.160;8.980;2023-10-09T07:24:54;58.22;;;6.85;;
60979;SDS011;46851;49.160;8.980;2023-10-09T07:27:21;36.97;;;4.95;;
60979;SDS011;46851;49.160;8.980;2023-10-09T07:30:08;37.90;;;5.22;;
60979;SDS011;46851;49.160;8.980;2023-10-09T07:32:54;32.42;;;5.47;;
60979;SDS011;46851;49.160;8.980;2023-10-09T07:35:21;60.97;;;6.85;;
60979;SDS011;46851;49.160;8.980;2023-10-09T07:38:11;51.30;;;7.00;;
60979;SDS011;46851;49.160;8.980;2023-10-09T07:40:39;54.97;;;8.23;;
60979;SDS011;46851;49.160;8.980;2023-10-09T07:43:24;96.20;;;7.85;;
60979;SDS011;46851;49.160;8.980;2023-10-09T07:46:15;62.53;;;7.22;;
60979;SDS011;46851;49.160;8.980;2023-10-09T07:49:01;50.20;;;7.47;;
60979;SDS011;46851;49.160;8.980;2023-10-09T07:51:35;51.47;;;5.75;;
60979;SDS011;46851;49.160;8.980;2023-10-09T07:54:01;44.65;;;6.07;;
60979;SDS011;46851;49.160;8.980;2023-10-09T07:56:37;58.10;;;6.35;;
60979;SDS011;46851;49.160;8.980;2023-10-09T07:59:09;42.72;;;6.43;;
60979;SDS011;46851;49.160;8.980;2023-10-09T08:01:43;30.08;;;4.72;;
60979;SDS011;46851;49.160;8.980;2023-10-09T08:04:23;29.95;;;5.10;;
60979;SDS011;46851;49.160;8.980;2023-10-09T08:09:53;60.67;;;6.53;;
60979;SDS011;46851;49.160;8.980;2023-10-09T08:12:38;57.88;;;7.05;;
60979;SDS011;46851;49.160;8.980;2023-10-09T08:15:23;64.45;;;6.72;;
60979;SDS011;46851;49.160;8.980;2023-10-09T08:17:56;58.60;;;6.10;;
60979;SDS011;46851;49.160;8.980;2023-10-09T08:20:34;45.55;;;6.63;;
60979;SDS011;46851;49.160;8.980;2023-10-09T08:23:36;54.80;;;7.43;;
60979;SDS011;46851;49.160;8.980;2023-10-09T08:26:17;62.85;;;5.97;;
60979;SDS011;46851;49.160;8.980;2023-10-09T08:29:12;31.88;;;4.93;;
60979;SDS011;46851;49.160;8.980;2023-10-09T08:31:42;35.15;;;5.15;;
60979;SDS011;46851;49.160;8.980;2023-10-09T08:34:12;34.75;;;5.50;;
60979;SDS011;46851;49.160;8.980;2023-10-09T08:36:49;56.00;;;5.60;;
60979;SDS011;46851;49.160;8.980;2023-10-09T08:39:19;37.13;;;5.70;;
60979;SDS011;46851;49.160;8.980;2023-10-09T08:41:55;42.38;;;5.35;;
60979;SDS011;46851;49.160;8.980;2023-10-09T08:44:26;44.45;;;5.85;;
60979;SDS011;46851;49.160;8.980;2023-10-09T08:46:54;52.47;;;7.90;;
60979;SDS011;46851;49.160;8.980;2023-10-09T08:49:22;59.88;;;5.85;;
60979;SDS011;46851;49.160;8.980;2023-10-09T08:51:48;59.65;;;5.85;;
60979;SDS011;46851;49.160;8.980;2023-10-09T08:54:14;45.72;;;6.05;;
60979;SDS011;46851;49.160;8.980;2023-10-09T08:56:41;65.32;;;7.05;;
60979;SDS011;46851;49.160;8.980;2023-10-09T08:59:16;64.38;;;6.00;;
60979;SDS011;46851;49.160;8.980;2023-10-09T09:01:43;78.05;;;6.60;;
60979;SDS011;46851;49.160;8.980;2023-10-09T09:04:09;51.67;;;6.18;;
60979;SDS011;46851;49.160;8.980;2023-10-09T09:06:37;55.10;;;7.10;;
60979;SDS011;46851;49.160;8.980;2023-10-09T09:09:09;51.28;;;5.78;;
60979;SDS011;46851;49.160;8.980;2023-10-09T09:11:42;38.15;;;5.28;;
60979;SDS011;46851;49.160;8.980;2023-10-09T09:14:14;35.03;;;4.53;;
60979;SDS011;46851;49.160;8.980;2023-10-09T09:16:47;28.73;;;4.30;;
60979;SDS011;46851;49.160;8.980;2023-10-09T09:19:13;18.23;;;3.70;;
60979;SDS011;46851;49.160;8.980;2023-10-09T09:21:47;18.30;;;3.30;;
60979;SDS011;46851;49.160;8.980;2023-10-09T09:24:14;24.83;;;4.07;;
60979;SDS011;46851;49.160;8.980;2023-10-09T09:26:42;18.13;;;4.00;;
60979;SDS011;46851;49.160;8.980;2023-10-09T09:31:37;15.10;;;3.13;;
60979;SDS011;46851;49.160;8.980;2023-10-09T09:34:04;20.20;;;3.60;;
60979;SDS011;46851;49.160;8.980;2023-10-09T09:36:38;20.58;;;3.47;;
60979;SDS011;46851;49.160;8.980;2023-10-09T09:39:18;26.95;;;3.78;;
60979;SDS011;46851;49.160;8.980;2023-10-09T09:41:45;24.80;;;3.58;;
60979;SDS011;46851;49.160;8.980;2023-10-09T09:44:11;17.55;;;3.10;;
60979;SDS011;46851;49.160;8.980;2023-10-09T09:46:42;26.70;;;3.75;;
60979;SDS011;46851;49.160;8.980;2023-10-09T09:49:09;20.38;;;3.65;;
60979;SDS011;46851;49.160;8.980;2023-10-09T09:51:46;13.10;;;2.70;;
60979;SDS011;46851;49.160;8.980;2023-10-09T09:54:13;14.45;;;2.92;;
60979;SDS011;46851;49.160;8.980;2023-10-09T09:56:45;22.83;;;4.30;;
60979;SDS011;46851;49.160;8.980;2023-10-09T09:59:16;24.88;;;4.38;;
60979;SDS011;46851;49.160;8.980;2023-10-09T10:01:47;11.77;;;3.10;;
60979;SDS011;46851;49.160;8.980;2023-10-09T10:04:22;19.48;;;4.05;;
60979;SDS011;46851;49.160;8.980;2023-10-09T10:06:49;25.95;;;4.20;;
60979;SDS011;46851;49.160;8.980;2023-10-09T10:09:59;19.33;;;3.03;;
60979;SDS011;46851;49.160;8.980;2023-10-09T10:12:06;17.05;;;3.80;;
60979;SDS011;46851;49.160;8.980;2023-10-09T10:14:51;14.20;;;3.20;;
60979;SDS011;46851;49.160;8.980;2023-10-09T10:17:18;24.73;;;4.03;;
60979;SDS011;46851;49.160;8.980;2023-10-09T10:20:02;14.93;;;3.00;;
60979;SDS011;46851;49.160;8.980;2023-10-09T10:22:44;21.65;;;3.40;;
60979;SDS011;46851;49.160;8.980;2023-10-09T10:28:16;18.60;;;3.47;;
60979;SDS011;46851;49.160;8.980;2023-10-09T10:30:53;16.65;;;3.55;;
60979;SDS011;46851;49.160;8.980;2023-10-09T10:33:20;19.75;;;4.43;;
60979;SDS011;46851;49.160;8.980;2023-10-09T10:35:47;17.92;;;3.38;;
60979;SDS011;46851;49.160;8.980;2023-10-09T10:41:07;17.40;;;3.50;;
60979;SDS011;46851;49.160;8.980;2023-10-09T10:43:36;11.27;;;3.30;;
60979;SDS011;46851;49.160;8.980;2023-10-09T10:46:11;19.88;;;3.25;;
60979;SDS011;46851;49.160;8.980;2023-10-09T10:48:59;17.00;;;3.00;;
60979;SDS011;46851;49.160;8.980;2023-10-09T10:51:40;14.07;;;3.15;;
60979;SDS011;46851;49.160;8.980;2023-10-09T10:54:07;13.57;;;3.17;;
60979;SDS011;46851;49.160;8.980;2023-10-09T10:57:02;20.75;;;4.15;;
60979;SDS011;46851;49.160;8.980;2023-10-09T10:59:32;16.40;;;3.70;;
60979;SDS011;46851;49.160;8.980;2023-10-09T11:02:09;31.38;;;3.90;;
60979;SDS011;46851;49.160;8.980;2023-10-09T11:04:35;25.13;;;3.58;;
60979;SDS011;46851;49.160;8.980;2023-10-09T11:07:06;20.92;;;4.05;;
60979;SDS011;46851;49.160;8.980;2023-10-09T11:09:56;25.42;;;3.63;;
60979;SDS011;46851;49.160;8.980;2023-10-09T11:15:38;17.05;;;3.33;;
60979;SDS011;46851;49.160;8.980;2023-10-09T11:18:12;19.27;;;3.28;;
60979;SDS011;46851;49.160;8.980;2023-10-09T11:20:44;18.15;;;3.53;;
60979;SDS011;46851;49.160;8.980;2023-10-09T11:23:22;24.08;;;5.75;;
60979;SDS011;46851;49.160;8.980;2023-10-09T11:28:45;15.35;;;3.10;;
60979;SDS011;46851;49.160;8.980;2023-10-09T11:31:21;21.27;;;3.83;;
60979;SDS011;46851;49.160;8.980;2023-10-09T11:33:51;21.00;;;3.03;;
60979;SDS011;46851;49.160;8.980;2023-10-09T11:38:56;16.50;;;3.10;;
60979;SDS011;46851;49.160;8.980;2023-10-09T11:41:39;19.08;;;3.22;;
60979;SDS011;46851;49.160;8.980;2023-10-09T11:44:09;23.60;;;3.47;;
60979;SDS011;46851;49.160;8.980;2023-10-09T11:46:57;17.23;;;3.40;;
60979;SDS011;46851;49.160;8.980;2023-10-09T11:49:23;14.15;;;3.25;;
60979;SDS011;46851;49.160;8.980;2023-10-09T11:52:09;19.38;;;3.33;;
60979;SDS011;46851;49.160;8.980;2023-10-09T11:54:38;33.67;;;4.65;;
60979;SDS011;46851;49.160;8.980;2023-10-09T11:57:04;29.77;;;4.45;;
60979;SDS011;46851;49.160;8.980;2023-10-09T11:59:31;21.33;;;2.95;;
60979;SDS011;46851;49.160;8.980;2023-10-09T12:02:04;13.15;;;3.28;;
60979;SDS011;46851;49.160;8.980;2023-10-09T12:04:30;15.25;;;3.60;;
60979;SDS011;46851;49.160;8.980;2023-10-09T12:06:56;14.88;;;3.28;;
60979;SDS011;46851;49.160;8.980;2023-10-09T12:09:34;17.27;;;3.45;;
60979;SDS011;46851;49.160;8.980;2023-10-09T12:12:04;15.35;;;3.60;;
60979;SDS011;46851;49.160;8.980;2023-10-09T12:14:30;12.82;;;3.10;;
60979;SDS011;46851;49.160;8.980;2023-10-09T12:17:03;20.55;;;4.07;;
60979;SDS011;46851;49.160;8.980;2023-10-09T12:19:33;23.98;;;4.07;;
60979;SDS011;46851;49.160;8.980;2023-10-09T12:21:59;16.35;;;3.42;;
60979;SDS011;46851;49.160;8.980;2023-10-09T12:24:26;16.13;;;3.55;;
60979;SDS011;46851;49.160;8.980;2023-10-09T12:26:54;25.33;;;3.65;;
60979;SDS011;46851;49.160;8.980;2023-10-09T12:29:21;22.70;;;3.38;;
60979;SDS011;46851;49.160;8.980;2023-10-09T12:31:47;22.50;;;3.78;;
60979;SDS011;46851;49.160;8.980;2023-10-09T12:34:13;27.00;;;4.38;;
60979;SDS011;46851;49.160;8.980;2023-10-09T12:36:41;22.50;;;4.32;;
60979;SDS011;46851;49.160;8.980;2023-10-09T12:39:09;26.38;;;4.05;;
60979;SDS011;46851;49.160;8.980;2023-10-09T12:41:43;18.23;;;3.25;;
60979;SDS011;46851;49.160;8.980;2023-10-09T12:44:09;34.35;;;4.25;;
60979;SDS011;46851;49.160;8.980;2023-10-09T12:46:44;23.63;;;3.83;;
60979;SDS011;46851;49.160;8.980;2023-10-09T12:49:21;32.08;;;3.17;;
60979;SDS011;46851;49.160;8.980;2023-10-09T12:51:53;30.87;;;4.20;;
60979;SDS011;46851;49.160;8.980;2023-10-09T12:54:19;29.85;;;3.88;;
60979;SDS011;46851;49.160;8.980;2023-10-09T12:56:55;39.97;;;5.07;;
60979;SDS011;46851;49.160;8.980;2023-10-09T12:59:23;27.33;;;3.95;;
60979;SDS011;46851;49.160;8.980;2023-10-09T13:01:49;36.95;;;4.13;;
60979;SDS011;46851;49.160;8.980;2023-10-09T13:04:22;31.42;;;3.42;;
60979;SDS011;46851;49.160;8.980;2023-10-09T13:06:49;34.42;;;4.28;;
60979;SDS011;46851;49.160;8.980;2023-10-09T13:09:19;39.40;;;4.55;;
60979;SDS011;46851;49.160;8.980;2023-10-09T13:11:59;34.28;;;5.00;;
60979;SDS011;46851;49.160;8.980;2023-10-09T13:14:26;24.80;;;4.45;;
60979;SDS011;46851;49.160;8.980;2023-10-09T13:16:52;34.65;;;4.78;;
60979;SDS011;46851;49.160;8.980;2023-10-09T13:19:18;23.83;;;3.83;;
60979;SDS011;46851;49.160;8.980;2023-10-09T13:21:44;33.90;;;4.63;;
60979;SDS011;46851;49.160;8.980;2023-10-09T13:24:11;34.65;;;4.63;;
60979;SDS011;46851;49.160;8.980;2023-10-09T13:26:49;25.90;;;4.70;;
60979;SDS011;46851;49.160;8.980;2023-10-09T13:29:17;30.30;;;4.32;;
60979;SDS011;46851;49.160;8.980;2023-10-09T13:31:49;21.45;;;3.63;;
60979;SDS011;46851;49.160;8.980;2023-10-09T13:34:17;26.77;;;4.65;;
60979;SDS011;46851;49.160;8.980;2023-10-09T13:36:44;23.52;;;3.70;;
60979;SDS011;46851;49.160;8.980;2023-10-09T13:39:20;13.10;;;3.28;;
60979;SDS011;46851;49.160;8.980;2023-10-09T13:41:51;24.92;;;4.80;;
60979;SDS011;46851;49.160;8.980;2023-10-09T13:44:26;27.20;;;4.35;;
60979;SDS011;46851;49.160;8.980;2023-10-09T13:46:53;13.68;;;3.83;;
60979;SDS011;46851;49.160;8.980;2023-10-09T13:49:19;21.65;;;3.83;;
60979;SDS011;46851;49.160;8.980;2023-10-09T13:51:47;25.15;;;4.30;;
60979;SDS011;46851;49.160;8.980;2023-10-09T13:54:15;28.10;;;4.50;;
60979;SDS011;46851;49.160;8.980;2023-10-09T13:57:07;29.38;;;5.47;;
60979;SDS011;46851;49.160;8.980;2023-10-09T13:59:36;39.33;;;4.78;;
60979;SDS011;46851;49.160;8.980;2023-10-09T14:02:07;44.08;;;4.53;;
60979;SDS011;46851;49.160;8.980;2023-10-09T14:04:42;35.55;;;6.50;;
60979;SDS011;46851;49.160;8.980;2023-10-09T14:07:08;20.45;;;4.07;;
60979;SDS011;46851;49.160;8.980;2023-10-09T14:09:34;33.70;;;5.40;;
60979;SDS011;46851;49.160;8.980;2023-10-09T14:12:04;45.10;;;5.88;;
60979;SDS011;46851;49.160;8.980;2023-10-09T14:14:39;37.63;;;5.50;;
60979;SDS011;46851;49.160;8.980;2023-10-09T14:17:18;44.08;;;5.30;;
60979;SDS011;46851;49.160;8.980;2023-10-09T14:19:56;45.08;;;5.13;;
60979;SDS011;46851;49.160;8.980;2023-10-09T14:22:41;46.28;;;5.13;;
60979;SDS011;46851;49.160;8.980;2023-10-09T14:25:07;44.25;;;5.95;;
60979;SDS011;46851;49.160;8.980;2023-10-09T14:27:40;50.75;;;6.63;;
60979;SDS011;46851;49.160;8.980;2023-10-09T14:30:06;55.22;;;6.13;;
60979;SDS011;46851;49.160;8.980;2023-10-09T14:32:37;39.80;;;5.47;;
60979;SDS011;46851;49.160;8.980;2023-10-09T14:35:13;28.13;;;5.18;;
60979;SDS011;46851;49.160;8.980;2023-10-09T14:37:39;32.90;;;6.03;;
60979;SDS011;46851;49.160;8.980;2023-10-09T14:40:06;38.10;;;6.30;;
60979;SDS011;46851;49.160;8.980;2023-10-09T14:42:38;49.85;;;5.55;;
60979;SDS011;46851;49.160;8.980;2023-10-09T14:45:09;47.03;;;6.88;;
60979;SDS011;46851;49.160;8.980;2023-10-09T14:47:40;71.72;;;5.82;;
60979;SDS011;46851;49.160;8.980;2023-10-09T14:50:06;51.25;;;6.18;;
60979;SDS011;46851;49.160;8.980;2023-10-09T14:52:34;33.30;;;5.72;;
60979;SDS011;46851;49.160;8.980;2023-10-09T14:55:04;49.72;;;6.07;;
60979;SDS011;46851;49.160;8.980;2023-10-09T14:57:30;44.97;;;6.30;;
60979;SDS011;46851;49.160;8.980;2023-10-09T14:59:59;26.67;;;5.03;;
60979;SDS011;46851;49.160;8.980;2023-10-09T15:02:26;20.95;;;4.63;;
60979;SDS011;46851;49.160;8.980;2023-10-09T15:04:52;20.25;;;4.20;;
60979;SDS011;46851;49.160;8.980;2023-10-09T15:07:18;21.83;;;3.70;;
60979;SDS011;46851;49.160;8.980;2023-10-09T15:09:46;19.50;;;4.10;;
60979;SDS011;46851;49.160;8.980;2023-10-09T15:12:12;19.80;;;4.57;;
60979;SDS011;46851;49.160;8.980;2023-10-09T15:14:38;17.55;;;3.88;;
60979;SDS011;46851;49.160;8.980;2023-10-09T15:17:04;15.07;;;3.65;;
60979;SDS011;46851;49.160;8.980;2023-10-09T15:19:32;16.13;;;3.70;;
60979;SDS011;46851;49.160;8.980;2023-10-09T15:21:58;20.73;;;4.50;;
60979;SDS011;46851;49.160;8.980;2023-10-09T15:24:25;17.77;;;3.40;;
60979;SDS011;46851;49.160;8.980;2023-10-09T15:26:52;12.70;;;3.53;;
60979;SDS011;46851;49.160;8.980;2023-10-09T15:31:52;18.45;;;4.20;;
60979;SDS011;46851;49.160;8.980;2023-10-09T15:34:18;15.57;;;3.13;;
60979;SDS011;46851;49.160;8.980;2023-10-09T15:36:45;17.65;;;4.57;;
60979;SDS011;46851;49.160;8.980;2023-10-09T15:39:14;14.50;;;3.20;;
60979;SDS011;46851;49.160;8.980;2023-10-09T15:44:10;13.70;;;3.20;;
60979;SDS011;46851;49.160;8.980;2023-10-09T15:46:38;13.05;;;3.15;;
60979;SDS011;46851;49.160;8.980;2023-10-09T15:49:04;21.17;;;4.00;;
60979;SDS011;46851;49.160;8.980;2023-10-09T15:51:36;22.38;;;4.00;;